Ana Sayfa
METAR-TAF:

METAR-TAF

Havaalanları :

Sault Ste. Marie, Michigan, Amerika Birleşik Devletleri

Enlem: 46-15N, Boylam: 084-28W, yükseklik: 244 m

Güncel hava durumu gözlemi

Rapor saat 05:56 UTC de 1 saat ve 7 dakika önce yapıldı.
Rüzgar batıdan 9 kt
Sıcaklık -13°C
Nem 85%
Basınç 1031 hPa
Görüş mesafesi: 14.5 km
5000 ft yükseklikte çok bulutlu
hafif kar

METAR: KCIU 200556Z AUTO 26009KT 9SM -SN OVC050 M13/M15 A3046 RMK AO2 SLP331 P0000 60000 T11331150 11111 21139 53003 FZRANO

Saat: 02:03 (07:03 UTC)


TAF: eksik

4.000'den fazla havaalanı için hava durumu gözlemleri ve tahminleri (METAR ve TAF raporları).

Kullanılabilir istasyonlar harita üzerinde sarı ve kırmızı noktalarla gösterilir.

İstasyonun adını görmek için fareyi noktanın üzerinde gezdirin.

Sonrasında hava gözlem ve tahminlerini görmek için tıklayın.

Haritayı değiştirmek için: yaklaştırmak için siyah artı işaretli yeşil düğmeye ve uzaklaştırmak için de eksi işaretli düğmeye hızla tıklayın; bitişik haritalar için yeşil okları kullanın.


METAR-TAF: